Time;durP1;ratioP1;P1;durP2;ratioP2;P2;SDS_P1;SDS_P2;PMS_P1;PMS_P2;Temp;Humidity;BMP_temperature;BMP_pressure;BME280_temperature;BME280_humidity;BME280_pressure;Samples;Min_cycle;Max_cycle;Signal;HPM_P1;HPM_P2
2023/07/07 00:02:14;;;;;;;1.58;1.48;;;20.90;59.20;;;;;;5053415;28;20234;-68
2023/07/07 00:04:39;;;;;;;1.73;1.63;;;20.90;59.20;;;;;;5053217;28;20163;-67
2023/07/07 00:07:05;;;;;;;1.88;1.77;;;20.90;59.20;;;;;;5053573;28;20179;-69
2023/07/07 00:09:30;;;;;;;2.38;1.75;;;20.90;59.20;;;;;;5053014;28;20654;-68
2023/07/07 00:11:57;;;;;;;1.70;1.60;;;20.80;59.20;;;;;;5053292;28;20182;-72
2023/07/07 00:14:23;;;;;;;1.98;1.77;;;20.80;59.20;;;;;;5053515;28;20179;-71
2023/07/07 00:16:48;;;;;;;1.55;1.45;;;20.80;59.20;;;;;;5052779;28;20185;-71
2023/07/07 00:19:14;;;;;;;1.67;1.58;;;20.80;59.20;;;;;;5053131;28;20299;-70
2023/07/07 00:21:40;;;;;;;1.80;1.70;;;20.90;59.20;;;;;;5053262;28;20213;-69
2023/07/07 00:24:07;;;;;;;1.63;1.35;;;20.80;59.10;;;;;;5052611;28;20175;-70
2023/07/07 00:26:32;;;;;;;1.83;1.73;;;20.80;59.20;;;;;;5053461;28;20209;-69
2023/07/07 00:28:58;;;;;;;1.60;1.50;;;20.80;59.20;;;;;;5052961;28;20215;-70
2023/07/07 00:31:23;;;;;;;1.58;1.48;;;20.80;59.20;;;;;;5052488;28;20241;-69
2023/07/07 00:33:49;;;;;;;1.40;1.30;;;20.80;59.20;;;;;;5053125;28;20175;-69
2023/07/07 00:36:15;;;;;;;1.98;1.70;;;20.80;59.20;;;;;;5053014;28;20197;-69
2023/07/07 00:38:40;;;;;;;1.92;1.73;;;20.80;59.20;;;;;;5052359;28;20187;-69
2023/07/07 00:41:06;;;;;;;1.65;1.55;;;20.80;59.20;;;;;;5052533;28;20330;-69
2023/07/07 00:43:32;;;;;;;1.85;1.52;;;20.80;59.80;;;;;;5051914;28;20175;-69
2023/07/07 00:45:57;;;;;;;1.88;1.65;;;20.80;59.20;;;;;;5052040;28;20175;-68
2023/07/07 00:48:25;;;;;;;2.17;1.95;;;20.80;59.20;;;;;;5052956;28;20175;-69
2023/07/07 00:50:56;;;;;;;1.70;1.60;;;20.80;59.20;;;;;;5052929;28;20657;-69
2023/07/07 00:53:21;;;;;;;1.60;1.50;;;20.80;59.20;;;;;;5050985;28;20187;-68
2023/07/07 00:55:49;;;;;;;1.98;1.80;;;20.80;59.20;;;;;;5051924;28;20178;-69
2023/07/07 00:58:17;;;;;;;1.95;1.75;;;20.80;59.20;;;;;;5052598;28;20194;-70
2023/07/07 01:00:44;;;;;;;1.83;1.73;;;20.80;59.20;;;;;;5050745;28;20297;-69
2023/07/07 01:03:14;;;;;;;1.90;1.80;;;20.80;59.10;;;;;;5051277;28;20646;-68
2023/07/07 01:05:40;;;;;;;2.08;1.88;;;20.80;59.20;;;;;;5050985;28;20187;-68
2023/07/07 01:08:06;;;;;;;1.65;1.55;;;20.80;59.20;;;;;;5051332;28;20167;-69
2023/07/07 01:10:32;;;;;;;1.90;1.80;;;20.80;59.10;;;;;;5052752;28;20700;-69
2023/07/07 01:12:58;;;;;;;1.83;1.73;;;20.80;59.10;;;;;;5051805;28;20187;-72
2023/07/07 01:15:23;;;;;;;2.15;1.80;;;20.70;59.10;;;;;;5051448;28;20183;-71
2023/07/07 01:17:58;;;;;;;2.00;1.85;;;20.80;59.10;;;;;;5051706;28;20178;-70
2023/07/07 01:20:30;;;;;;;3.35;1.73;;;20.80;59.20;;;;;;5050819;28;20241;-70
2023/07/07 01:23:12;;;;;;;1.58;1.48;;;20.80;59.10;;;;;;5052428;28;20254;-70
2023/07/07 01:25:59;;;;;;;2.00;1.73;;;20.70;59.10;;;;;;5051444;28;20178;-69
2023/07/07 01:28:42;;;;;;;1.92;1.83;;;20.80;59.10;;;;;;5052199;28;20202;-69
2023/07/07 01:31:19;;;;;;;1.83;1.73;;;20.70;59.10;;;;;;5051319;28;20171;-68
2023/07/07 01:33:46;;;;;;;1.92;1.83;;;20.70;59.10;;;;;;5050739;28;20170;-68
2023/07/07 01:36:11;;;;;;;1.90;1.80;;;20.70;59.10;;;;;;5050994;28;20217;-68
2023/07/07 01:38:39;;;;;;;1.80;1.70;;;20.70;59.10;;;;;;5052660;28;20571;-69
2023/07/07 01:41:10;;;;;;;2.38;1.80;;;20.70;59.70;;;;;;5051208;28;20238;-71
2023/07/07 01:44:02;;;;;;;1.75;1.50;;;20.70;59.10;;;;;;5052548;28;20233;-68
2023/07/07 01:46:34;;;;;;;1.95;1.83;;;20.70;59.10;;;;;;5040785;28;20187;-68
2023/07/07 01:49:14;;;;;;;2.28;2.08;;;20.70;59.10;;;;;;5050548;28;20194;-70
2023/07/07 01:51:52;;;;;;;1.52;1.40;;;20.70;59.10;;;;;;5054645;28;20175;-68
2023/07/07 01:54:18;;;;;;;2.00;1.90;;;20.70;59.10;;;;;;5054808;28;20203;-68
2023/07/07 01:56:44;;;;;;;3.00;1.63;;;20.70;59.10;;;;;;5054110;28;20203;-70
2023/07/07 01:59:09;;;;;;;2.33;1.92;;;20.70;59.10;;;;;;5054551;28;20181;-70
2023/07/07 02:01:35;;;;;;;2.90;1.88;;;20.70;59.10;;;;;;5054987;28;20211;-68
2023/07/07 02:04:00;;;;;;;1.70;1.60;;;20.70;59.10;;;;;;5054075;28;20172;-68
2023/07/07 02:06:26;;;;;;;1.67;1.58;;;20.70;59.10;;;;;;5056069;28;20172;-68
2023/07/07 02:08:51;;;;;;;2.75;1.75;;;20.60;59.10;;;;;;5055748;28;20291;-70
2023/07/07 02:11:17;;;;;;;2.17;1.90;;;20.70;59.10;;;;;;5055236;28;20187;-69
2023/07/07 02:13:43;;;;;;;1.80;1.70;;;20.70;59.10;;;;;;5056467;28;20254;-72
2023/07/07 02:16:08;;;;;;;1.88;1.77;;;20.60;59.10;;;;;;5054826;28;20289;-70
2023/07/07 02:18:37;;;;;;;1.90;1.80;;;20.70;59.10;;;;;;5055925;28;20186;-70
2023/07/07 02:21:04;;;;;;;2.00;1.90;;;20.60;59.10;;;;;;5055277;28;20206;-71
2023/07/07 02:23:30;;;;;;;2.50;1.95;;;20.60;59.00;;;;;;5055046;28;20179;-69
2023/07/07 02:25:56;;;;;;;1.70;1.60;;;20.60;59.00;;;;;;5055508;28;20539;-70
2023/07/07 02:28:21;;;;;;;1.80;1.70;;;20.60;59.10;;;;;;5055497;28;20179;-68
2023/07/07 02:30:47;;;;;;;2.53;1.77;;;20.60;59.00;;;;;;5054813;28;20175;-69
2023/07/07 02:33:12;;;;;;;2.00;1.80;;;20.60;59.20;;;;;;5055391;28;20167;-69
2023/07/07 02:35:39;;;;;;;1.27;1.27;;;20.60;59.10;;;;;;5055690;28;20590;-68
2023/07/07 02:38:04;;;;;;;2.00;1.70;;;20.60;59.10;;;;;;5053337;28;20175;-70
2023/07/07 02:40:30;;;;;;;1.98;1.88;;;20.70;59.10;;;;;;5055043;28;20249;-68
2023/07/07 02:42:55;;;;;;;2.10;1.90;;;20.60;59.00;;;;;;5054951;28;20198;-70
2023/07/07 02:45:21;;;;;;;2.03;1.75;;;20.60;59.10;;;;;;5054599;28;20167;-68
2023/07/07 02:47:46;;;;;;;1.75;1.65;;;20.60;59.00;;;;;;5055322;28;20638;-68
2023/07/07 02:50:12;;;;;;;1.98;1.85;;;20.60;59.00;;;;;;5054908;28;20171;-69
2023/07/07 02:52:37;;;;;;;2.47;1.50;;;20.60;59.10;;;;;;5054519;28;20181;-68
2023/07/07 02:55:03;;;;;;;4.88;2.15;;;20.60;59.10;;;;;;5054718;28;20257;-71
2023/07/07 02:57:29;;;;;;;2.00;1.80;;;20.60;59.00;;;;;;5055274;28;20300;-69
2023/07/07 02:59:54;;;;;;;2.20;2.05;;;20.60;59.00;;;;;;5054238;28;20175;-69
2023/07/07 03:02:20;;;;;;;2.20;2.00;;;20.60;59.10;;;;;;5053408;28;20227;-69
2023/07/07 03:04:47;;;;;;;2.95;1.98;;;20.60;59.10;;;;;;5055045;28;20250;-68
2023/07/07 03:07:13;;;;;;;1.58;1.45;;;20.50;59.00;;;;;;5053933;28;20202;-68
2023/07/07 03:09:38;;;;;;;2.20;1.67;;;20.60;59.70;;;;;;5054804;28;20218;-69
2023/07/07 03:12:04;;;;;;;2.38;1.85;;;20.50;59.00;;;;;;5054440;28;20182;-71
2023/07/07 03:14:30;;;;;;;2.08;1.77;;;20.50;59.00;;;;;;5053831;28;20167;-72
2023/07/07 03:16:56;;;;;;;2.10;1.90;;;20.50;59.00;;;;;;5054804;28;20261;-71
2023/07/07 03:19:22;;;;;;;1.92;1.83;;;20.50;59.00;;;;;;5054026;28;20178;-70
2023/07/07 03:21:48;;;;;;;2.00;1.90;;;20.50;59.00;;;;;;5054610;28;20573;-69
2023/07/07 03:24:14;;;;;;;1.90;1.77;;;20.50;59.00;;;;;;5054309;28;20170;-68
2023/07/07 03:26:40;;;;;;;1.80;1.70;;;20.50;59.00;;;;;;5053919;28;20179;-69
2023/07/07 03:29:05;;;;;;;2.13;1.95;;;20.50;59.00;;;;;;5054417;28;20178;-68
2023/07/07 03:31:31;;;;;;;2.13;1.92;;;20.50;59.00;;;;;;5054847;28;20211;-68
2023/07/07 03:33:58;;;;;;;1.80;1.70;;;20.50;58.90;;;;;;5053408;28;20168;-68
2023/07/07 03:36:29;;;;;;;2.03;1.90;;;20.50;59.00;;;;;;5054296;28;20646;-68
2023/07/07 03:38:57;;;;;;;2.00;1.90;;;20.50;59.00;;;;;;5054148;28;20250;-70
2023/07/07 03:41:25;;;;;;;1.90;1.80;;;20.50;59.00;;;;;;5053460;28;20207;-68
2023/07/07 03:43:53;;;;;;;2.08;1.88;;;20.60;58.90;;;;;;5054049;28;20228;-68
2023/07/07 03:46:19;;;;;;;2.00;1.90;;;20.50;58.90;;;;;;5054010;28;20183;-68
2023/07/07 03:48:45;;;;;;;1.95;1.85;;;20.50;58.90;;;;;;5053440;28;20175;-68
2023/07/07 03:51:12;;;;;;;2.22;2.03;;;20.50;58.90;;;;;;5053698;28;20202;-69
2023/07/07 03:53:38;;;;;;;2.30;2.20;;;20.50;58.90;;;;;;5053928;28;20175;-68
2023/07/07 03:56:05;;;;;;;2.00;1.90;;;20.50;58.90;;;;;;5052916;28;20190;-70
2023/07/07 03:58:30;;;;;;;2.00;1.90;;;20.50;58.90;;;;;;5054069;28;20175;-70
2023/07/07 04:01:15;;;;;;;1.90;1.80;;;20.50;58.90;;;;;;5053408;28;20214;-70
2023/07/07 04:03:42;;;;;;;1.80;1.70;;;20.60;58.90;;;;;;5053138;28;20175;-68
2023/07/07 04:06:09;;;;;;;2.10;1.75;;;20.50;58.90;;;;;;5053363;28;20203;-68
2023/07/07 04:08:35;;;;;;;1.90;1.80;;;20.50;58.90;;;;;;5052981;28;20633;-69
2023/07/07 04:11:00;;;;;;;2.00;1.80;;;20.50;58.80;;;;;;5053408;28;20187;-71
2023/07/07 04:13:26;;;;;;;1.80;1.70;;;20.50;58.80;;;;;;5053253;28;20171;-70
2023/07/07 04:16:05;;;;;;;1.77;1.67;;;20.50;58.80;;;;;;5052977;28;20185;-71
2023/07/07 04:18:33;;;;;;;2.25;2.15;;;20.50;58.80;;;;;;5053400;28;20696;-69
2023/07/07 04:21:00;;;;;;;2.08;1.70;;;20.50;58.80;;;;;;5053231;28;20218;-71
2023/07/07 04:23:26;;;;;;;2.05;1.95;;;20.60;58.80;;;;;;5052884;28;20179;-70
2023/07/07 04:25:51;;;;;;;1.70;1.60;;;20.50;58.70;;;;;;5053510;28;20179;-68
2023/07/07 04:28:17;;;;;;;2.08;1.88;;;20.50;58.70;;;;;;5053046;28;20167;-69
2023/07/07 04:30:44;;;;;;;1.90;1.80;;;20.50;58.70;;;;;;5052630;28;20175;-68
2023/07/07 04:33:09;;;;;;;2.03;1.90;;;20.60;58.80;;;;;;5052836;28;20179;-69
2023/07/07 04:35:38;;;;;;;2.20;2.00;;;20.50;59.30;;;;;;5053456;28;20175;-69
2023/07/07 04:38:04;;;;;;;2.15;1.95;;;20.50;58.70;;;;;;5052081;28;20175;-69
2023/07/07 04:40:31;;;;;;;2.15;2.05;;;20.60;58.80;;;;;;5052965;28;20226;-69
2023/07/07 04:42:57;;;;;;;2.30;2.10;;;20.50;58.70;;;;;;5052895;28;20175;-70
2023/07/07 04:45:22;;;;;;;2.08;1.98;;;20.60;58.70;;;;;;5052308;28;20178;-68
2023/07/07 04:47:48;;;;;;;2.08;1.98;;;20.60;58.70;;;;;;5053005;28;20650;-68
2023/07/07 04:50:13;;;;;;;2.17;1.98;;;20.60;58.70;;;;;;5052729;28;20171;-68
2023/07/07 04:52:39;;;;;;;1.70;1.60;;;20.50;58.60;;;;;;5052381;28;20171;-69
2023/07/07 04:55:05;;;;;;;2.47;2.17;;;20.60;58.60;;;;;;5052735;28;20198;-71
2023/07/07 04:57:31;;;;;;;2.90;1.92;;;20.60;58.70;;;;;;5052951;28;20181;-70
2023/07/07 04:59:56;;;;;;;2.00;1.80;;;20.60;58.70;;;;;;5051928;28;20261;-70
2023/07/07 05:02:26;;;;;;;2.05;1.83;;;20.60;58.60;;;;;;5052866;28;20293;-68
2023/07/07 05:04:51;;;;;;;2.45;2.25;;;20.60;58.70;;;;;;5052320;28;20220;-69
2023/07/07 05:07:17;;;;;;;1.77;1.67;;;20.60;58.70;;;;;;5052650;28;20175;-68
2023/07/07 05:09:42;;;;;;;1.92;1.83;;;20.60;58.70;;;;;;5052862;28;20182;-69
2023/07/07 05:12:09;;;;;;;2.33;1.98;;;20.60;58.70;;;;;;5051932;28;20175;-71
2023/07/07 05:14:35;;;;;;;1.92;1.70;;;20.60;58.70;;;;;;5052841;28;20183;-71
2023/07/07 05:17:01;;;;;;;2.00;1.77;;;20.60;58.70;;;;;;5052337;28;20281;-72
2023/07/07 05:19:26;;;;;;;2.53;1.90;;;20.60;58.60;;;;;;5052204;28;20206;-71
2023/07/07 05:21:52;;;;;;;2.05;1.90;;;20.60;58.60;;;;;;5052764;28;20683;-70
2023/07/07 05:24:17;;;;;;;2.00;1.90;;;20.60;58.60;;;;;;5052358;28;20309;-70
2023/07/07 05:26:43;;;;;;;2.20;2.00;;;20.60;58.60;;;;;;5055308;28;20767;-69
2023/07/07 05:29:09;;;;;;;2.45;2.25;;;20.60;58.60;;;;;;5056390;28;20710;-69
2023/07/07 05:31:34;;;;;;;2.15;1.90;;;20.60;59.20;;;;;;5056650;28;20213;-68
2023/07/07 05:34:00;;;;;;;1.83;1.67;;;20.60;58.60;;;;;;5055629;28;20171;-69
2023/07/07 05:36:26;;;;;;;1.90;1.80;;;20.60;58.60;;;;;;5056596;28;20190;-69
2023/07/07 05:38:51;;;;;;;2.15;1.95;;;20.60;58.70;;;;;;5056498;28;20321;-69
2023/07/07 05:41:17;;;;;;;1.80;1.70;;;20.60;58.60;;;;;;5055456;28;20688;-69
2023/07/07 05:43:42;;;;;;;1.98;1.88;;;20.60;58.60;;;;;;5056418;28;20178;-68
2023/07/07 05:46:13;;;;;;;2.55;1.70;;;20.70;58.70;;;;;;5056148;28;20589;-68
2023/07/07 05:48:39;;;;;;;1.67;1.58;;;20.60;58.60;;;;;;5055839;28;20179;-68
2023/07/07 05:51:05;;;;;;;2.17;1.98;;;20.70;59.30;;;;;;5056229;28;20179;-68
2023/07/07 05:53:31;;;;;;;2.00;1.90;;;20.70;58.70;;;;;;5056255;28;20713;-69
2023/07/07 05:56:03;;;;;;;1.95;1.85;;;20.60;58.60;;;;;;5055334;28;20266;-70
2023/07/07 05:58:28;;;;;;;2.38;2.17;;;20.60;58.60;;;;;;5055123;28;20175;-69
2023/07/07 06:00:54;;;;;;;1.70;1.60;;;20.70;58.60;;;;;;5056176;28;20218;-71
2023/07/07 06:03:19;;;;;;;1.90;1.80;;;20.70;58.70;;;;;;5055276;28;20171;-69
2023/07/07 06:05:45;;;;;;;3.28;2.20;;;20.70;58.60;;;;;;5056261;28;20224;-68
2023/07/07 06:08:10;;;;;;;2.00;1.90;;;20.70;58.60;;;;;;5055178;28;20167;-68
2023/07/07 06:10:37;;;;;;;1.67;1.58;;;20.70;58.60;;;;;;5056094;28;20203;-69
2023/07/07 06:13:03;;;;;;;1.90;1.80;;;20.70;58.60;;;;;;5055549;28;20179;-72
2023/07/07 06:15:29;;;;;;;1.80;1.70;;;20.70;58.70;;;;;;5055060;28;20260;-70
2023/07/07 06:17:55;;;;;;;1.67;1.58;;;20.70;58.60;;;;;;5056028;28;20179;-71
2023/07/07 06:20:20;;;;;;;1.90;1.80;;;20.70;58.60;;;;;;5055617;28;20171;-70
2023/07/07 06:22:46;;;;;;;2.05;1.60;;;20.70;58.60;;;;;;5055111;28;20258;-70
2023/07/07 06:25:11;;;;;;;2.03;1.88;;;20.70;59.20;;;;;;5055420;28;20582;-69
2023/07/07 06:27:37;;;;;;;1.85;1.75;;;20.70;58.60;;;;;;5055573;28;20226;-68
2023/07/07 06:30:03;;;;;;;1.77;1.67;;;20.80;58.70;;;;;;5054793;28;20190;-68
2023/07/07 06:32:28;;;;;;;1.73;1.63;;;20.80;58.70;;;;;;5055653;28;20520;-68
2023/07/07 06:34:54;;;;;;;2.00;1.70;;;20.80;58.70;;;;;;5055529;28;20171;-68
2023/07/07 06:37:20;;;;;;;1.98;1.85;;;20.80;58.70;;;;;;5054376;28;20181;-68
2023/07/07 06:39:45;;;;;;;1.95;1.85;;;20.70;58.60;;;;;;5055276;28;20238;-68
2023/07/07 06:42:11;;;;;;;1.83;1.73;;;20.80;58.60;;;;;;5054942;28;20643;-69
2023/07/07 06:44:38;;;;;;;1.73;1.63;;;20.70;58.60;;;;;;5053476;28;20172;-67
2023/07/07 06:47:05;;;;;;;1.90;1.80;;;20.80;58.60;;;;;;5054902;28;20301;-68
2023/07/07 06:49:30;;;;;;;2.38;2.03;;;20.80;58.60;;;;;;5054088;28;20202;-67
2023/07/07 06:51:56;;;;;;;2.10;1.90;;;20.80;58.60;;;;;;5054161;28;20544;-68
2023/07/07 06:54:22;;;;;;;1.90;1.80;;;20.80;58.50;;;;;;5055099;28;20171;-68
2023/07/07 06:56:47;;;;;;;1.70;1.60;;;20.80;58.50;;;;;;5054912;28;20186;-69
2023/07/07 06:59:13;;;;;;;1.83;1.73;;;20.80;58.50;;;;;;5054190;28;20630;-69
2023/07/07 07:01:39;;;;;;;1.60;1.50;;;20.80;58.50;;;;;;5055074;28;20766;-68
2023/07/07 07:04:05;;;;;;;2.20;2.00;;;20.80;59.20;;;;;;5054805;28;20542;-68
2023/07/07 07:06:31;;;;;;;2.00;1.80;;;20.80;58.50;;;;;;5054362;28;20636;-67
2023/07/07 07:08:56;;;;;;;2.03;1.92;;;20.90;59.20;;;;;;5054609;28;20630;-68
2023/07/07 07:11:22;;;;;;;2.13;1.92;;;20.90;58.50;;;;;;5054044;28;20713;-69
2023/07/07 07:13:47;;;;;;;1.90;1.80;;;20.90;58.50;;;;;;5054680;28;20733;-69
2023/07/07 07:16:13;;;;;;;2.05;1.95;;;20.90;58.50;;;;;;5054320;28;20760;-70
2023/07/07 07:18:38;;;;;;;1.58;1.48;;;20.90;58.50;;;;;;5053989;28;20701;-69
2023/07/07 07:21:04;;;;;;;1.83;1.73;;;20.90;58.50;;;;;;5054343;28;20199;-69
2023/07/07 07:23:30;;;;;;;1.75;1.65;;;20.90;58.60;;;;;;5054623;28;20167;-68
2023/07/07 07:25:55;;;;;;;1.50;1.40;;;20.90;59.20;;;;;;5053653;28;20182;-68
2023/07/07 07:28:21;;;;;;;1.67;1.58;;;20.90;58.50;;;;;;5054685;28;20171;-68
2023/07/07 07:30:46;;;;;;;1.92;1.70;;;21.00;58.50;;;;;;5054584;28;20225;-68
2023/07/07 07:33:19;;;;;;;1.67;1.58;;;21.00;59.20;;;;;;5052186;28;20179;-68
2023/07/07 07:35:45;;;;;;;1.92;1.80;;;21.00;58.50;;;;;;5054386;28;20175;-68
2023/07/07 07:38:10;;;;;;;1.77;1.67;;;21.00;58.50;;;;;;5053927;28;20618;-68
2023/07/07 07:40:36;;;;;;;1.83;1.73;;;21.00;58.50;;;;;;5053217;28;20231;-68
2023/07/07 07:43:01;;;;;;;1.67;1.52;;;21.00;58.50;;;;;;5054068;28;20178;-68
2023/07/07 07:45:27;;;;;;;1.92;1.80;;;21.00;58.50;;;;;;5054344;28;20218;-67
2023/07/07 07:47:53;;;;;;;1.67;1.58;;;21.00;58.40;;;;;;5052763;28;20171;-67
2023/07/07 07:50:19;;;;;;;1.60;1.50;;;21.00;58.40;;;;;;5053848;28;20450;-67
2023/07/07 07:52:44;;;;;;;2.10;1.70;;;21.00;58.40;;;;;;5054233;28;20175;-67
2023/07/07 07:55:10;;;;;;;2.13;2.03;;;21.10;58.40;;;;;;5053123;28;20177;-68
2023/07/07 07:57:36;;;;;;;1.80;1.70;;;21.00;58.40;;;;;;5054322;28;20179;-68
2023/07/07 08:00:04;;;;;;;1.90;1.80;;;21.10;58.40;;;;;;5053614;28;20693;-70
2023/07/07 08:02:30;;;;;;;1.75;1.65;;;21.10;58.40;;;;;;5053120;28;20233;-68
2023/07/07 08:04:56;;;;;;;1.70;1.60;;;21.10;58.30;;;;;;5053734;28;20638;-68
2023/07/07 08:07:21;;;;;;;1.67;1.58;;;21.10;58.30;;;;;;5053870;28;20213;-67
2023/07/07 08:09:47;;;;;;;1.60;1.50;;;21.10;58.30;;;;;;5052919;28;20653;-67
2023/07/07 08:12:12;;;;;;;1.63;1.52;;;21.20;58.30;;;;;;5053602;28;20514;-69
2023/07/07 08:14:38;;;;;;;1.83;1.73;;;21.20;58.30;;;;;;5053591;28;20250;-69
2023/07/07 08:17:09;;;;;;;1.63;1.52;;;21.20;58.20;;;;;;5053345;28;20171;-70
2023/07/07 08:19:36;;;;;;;1.60;1.50;;;21.20;58.20;;;;;;5053511;28;20213;-68
2023/07/07 08:22:06;;;;;;;1.77;1.67;;;21.20;58.20;;;;;;5052531;28;20210;-68
2023/07/07 08:24:40;;;;;;;1.92;1.83;;;21.30;58.20;;;;;;5053266;28;20254;-68
2023/07/07 08:27:06;;;;;;;1.92;1.73;;;21.30;58.10;;;;;;5053092;28;20655;-68
2023/07/07 08:29:32;;;;;;;1.83;1.63;;;21.30;58.10;;;;;;5052818;28;20175;-67
2023/07/07 08:31:58;;;;;;;1.88;1.70;;;21.30;58.70;;;;;;5052953;28;20175;-67
2023/07/07 08:34:23;;;;;;;2.38;1.92;;;21.30;58.00;;;;;;5053463;28;20186;-68
2023/07/07 08:36:49;;;;;;;1.75;1.65;;;21.30;58.00;;;;;;5052496;28;20596;-68
2023/07/07 08:39:16;;;;;;;2.10;1.80;;;21.40;58.10;;;;;;5052842;28;20304;-68
2023/07/07 08:41:56;;;;;;;1.88;1.70;;;21.30;58.00;;;;;;5053325;28;20290;-68
2023/07/07 08:44:23;;;;;;;1.95;1.85;;;21.40;58.00;;;;;;5051178;28;20171;-67
2023/07/07 08:47:39;;;;;;;1.80;1.70;;;21.40;58.00;;;;;;5051952;28;20183;-67
2023/07/07 08:50:31;;;;;;;1.63;1.52;;;21.40;58.00;;;;;;5029975;28;20651;-67
2023/07/07 08:53:29;;;;;;;1.67;1.58;;;21.40;57.90;;;;;;5021477;28;20626;-69
2023/07/07 08:56:18;;;;;;;2.20;1.75;;;21.40;57.90;;;;;;5051988;28;20193;-68
2023/07/07 08:58:47;;;;;;;1.42;1.33;;;21.40;57.80;;;;;;5052275;28;20221;-68
2023/07/07 09:01:47;;;;;;;1.92;1.83;;;21.50;57.80;;;;;;5051603;28;20637;-68
2023/07/07 09:04:30;;;;;;;1.88;1.70;;;21.50;57.80;;;;;;5050870;28;20185;-67
2023/07/07 09:07:25;;;;;;;1.85;1.75;;;21.50;57.80;;;;;;5053070;28;20261;-67
2023/07/07 09:10:30;;;;;;;2.35;1.77;;;21.50;57.70;;;;;;5051793;28;20183;-68
2023/07/07 09:12:58;;;;;;;2.45;2.10;;;21.50;57.80;;;;;;5029666;28;20253;-70
2023/07/07 09:15:29;;;;;;;1.92;1.80;;;21.50;57.70;;;;;;5048371;28;20219;-69
2023/07/07 09:18:32;;;;;;;1.75;1.65;;;21.60;57.80;;;;;;5051292;28;20203;-70
2023/07/07 09:20:59;;;;;;;1.67;1.58;;;21.60;57.70;;;;;;5047757;28;20227;-70
2023/07/07 09:23:30;;;;;;;2.25;2.05;;;21.60;57.70;;;;;;5051475;28;20190;-68
2023/07/07 09:26:26;;;;;;;1.80;1.70;;;21.60;57.60;;;;;;5051787;28;20185;-68
2023/07/07 09:28:52;;;;;;;2.45;1.95;;;21.60;57.60;;;;;;5051890;28;20194;-68
2023/07/07 09:31:37;;;;;;;1.85;1.75;;;21.60;57.50;;;;;;5052482;28;20179;-68
2023/07/07 09:34:02;;;;;;;1.65;1.55;;;21.70;57.50;;;;;;5050419;28;20206;-68
2023/07/07 09:36:50;;;;;;;2.55;1.90;;;21.70;57.50;;;;;;5052569;28;20256;-68
2023/07/07 09:39:25;;;;;;;2.15;1.80;;;21.70;57.40;;;;;;5050282;28;20230;-68
2023/07/07 09:42:05;;;;;;;1.77;1.67;;;21.70;57.40;;;;;;5051504;28;20210;-68
2023/07/07 09:44:34;;;;;;;2.00;1.80;;;21.70;57.40;;;;;;5052841;28;20171;-68
2023/07/07 09:47:06;;;;;;;1.88;1.50;;;21.70;57.40;;;;;;5050371;28;20187;-68
2023/07/07 09:49:43;;;;;;;2.72;1.77;;;21.70;57.30;;;;;;5051077;28;20191;-67
2023/07/07 09:52:26;;;;;;;2.00;1.80;;;21.70;57.40;;;;;;5050988;28;20183;-68
2023/07/07 09:54:51;;;;;;;1.80;1.70;;;21.80;57.30;;;;;;5050501;28;20514;-69
2023/07/07 09:57:25;;;;;;;1.73;1.63;;;21.80;57.30;;;;;;5051028;28;20178;-69
2023/07/07 09:59:50;;;;;;;1.60;1.50;;;21.80;57.20;;;;;;5051246;28;20642;-68
2023/07/07 10:02:19;;;;;;;1.80;1.70;;;21.80;57.20;;;;;;5051103;28;20298;-68
2023/07/07 10:04:46;;;;;;;1.75;1.60;;;21.90;57.20;;;;;;5051333;28;20252;-67
2023/07/07 10:07:11;;;;;;;1.70;1.60;;;21.90;57.20;;;;;;5050114;28;20642;-68
2023/07/07 10:09:37;;;;;;;1.77;1.50;;;21.90;57.20;;;;;;5051093;28;20221;-67
2023/07/07 10:12:02;;;;;;;1.73;1.63;;;21.90;57.10;;;;;;5053951;28;20176;-69
2023/07/07 10:14:29;;;;;;;2.03;1.83;;;21.90;57.00;;;;;;5055337;28;20221;-70
2023/07/07 10:17:10;;;;;;;2.00;1.75;;;22.00;57.10;;;;;;5054580;28;20179;-70
2023/07/07 10:19:42;;;;;;;2.00;1.80;;;22.00;57.10;;;;;;5055705;28;20551;-70
2023/07/07 10:22:12;;;;;;;2.03;1.85;;;22.00;57.10;;;;;;5054609;28;20211;-69
2023/07/07 10:24:37;;;;;;;1.83;1.73;;;21.90;57.00;;;;;;5054539;28;20229;-68
2023/07/07 10:27:03;;;;;;;2.08;1.75;;;22.00;57.00;;;;;;5055340;28;20179;-69
2023/07/07 10:29:33;;;;;;;1.70;1.60;;;22.00;57.00;;;;;;5054748;28;20175;-68
2023/07/07 10:31:58;;;;;;;1.88;1.77;;;22.00;56.90;;;;;;5055366;28;20591;-68
2023/07/07 10:34:48;;;;;;;1.50;1.40;;;22.10;57.00;;;;;;5054460;28;20210;-68
2023/07/07 10:37:18;;;;;;;2.38;1.60;;;22.10;56.90;;;;;;5051532;28;20685;-68
2023/07/07 10:39:43;;;;;;;1.88;1.67;;;22.10;57.00;;;;;;5055097;28;20226;-68
2023/07/07 10:42:09;;;;;;;2.28;2.03;;;22.10;56.80;;;;;;5054033;28;20264;-68
2023/07/07 10:44:35;;;;;;;1.77;1.67;;;22.10;56.90;;;;;;5054887;28;20171;-68
2023/07/07 10:47:00;;;;;;;1.70;1.60;;;22.10;56.90;;;;;;5053968;28;20775;-68
2023/07/07 10:49:26;;;;;;;2.13;1.85;;;22.10;56.80;;;;;;5053390;28;20254;-67
2023/07/07 10:52:13;;;;;;;1.70;1.60;;;22.10;56.90;;;;;;5055225;28;20175;-68
2023/07/07 10:54:48;;;;;;;1.73;1.63;;;22.00;56.90;;;;;;5055385;28;20171;-68
2023/07/07 10:57:26;;;;;;;1.75;1.65;;;22.10;56.90;;;;;;5053037;28;20212;-68
2023/07/07 11:00:03;;;;;;;2.13;1.85;;;22.10;57.00;;;;;;5055035;28;20220;-68
2023/07/07 11:02:36;;;;;;;2.08;1.83;;;22.00;56.90;;;;;;5054984;28;20207;-67
2023/07/07 11:05:40;;;;;;;2.65;1.80;;;22.10;57.00;;;;;;5052892;28;20182;-68
2023/07/07 11:08:30;;;;;;;1.50;1.40;;;22.10;56.90;;;;;;5053212;28;20187;-67
2023/07/07 11:11:00;;;;;;;2.17;1.45;;;22.10;56.90;;;;;;5052612;28;20171;-68
2023/07/07 11:13:50;;;;;;;1.67;1.45;;;22.10;56.90;;;;;;5054980;28;20262;-69
2023/07/07 11:16:41;;;;;;;2.45;1.85;;;22.10;56.90;;;;;;5054664;28;20171;-69
2023/07/07 11:19:11;;;;;;;1.70;1.50;;;22.10;56.90;;;;;;5053609;28;20649;-69
2023/07/07 11:22:02;;;;;;;2.03;1.65;;;22.10;56.80;;;;;;5053526;28;20226;-68
2023/07/07 11:24:49;;;;;;;1.83;1.63;;;22.10;56.90;;;;;;5053957;28;20179;-68
2023/07/07 11:27:17;;;;;;;1.70;1.60;;;22.10;56.80;;;;;;5052787;28;20604;-66
2023/07/07 11:29:49;;;;;;;2.35;2.10;;;22.10;56.80;;;;;;5054015;28;20254;-67
2023/07/07 11:32:20;;;;;;;2.00;1.80;;;22.10;56.80;;;;;;5051823;28;20186;-66
2023/07/07 11:35:02;;;;;;;3.42;1.88;;;22.20;56.30;;;;;;5054425;28;20171;-66
2023/07/07 11:38:19;;;;;;;2.05;1.60;;;22.10;56.30;;;;;;5054342;28;20251;-67
2023/07/07 11:41:08;;;;;;;1.70;1.60;;;22.10;56.20;;;;;;5043699;28;20234;-67
2023/07/07 11:44:03;;;;;;;2.90;2.03;;;22.20;56.10;;;;;;5054114;28;20182;-67
2023/07/07 11:47:00;;;;;;;2.20;1.63;;;22.20;55.90;;;;;;5048323;28;20183;-66
2023/07/07 11:49:35;;;;;;;3.60;1.98;;;22.20;55.80;;;;;;5051028;28;20261;-66
2023/07/07 11:52:20;;;;;;;3.88;2.63;;;22.30;55.70;;;;;;5049888;28;20220;-65
2023/07/07 11:55:07;;;;;;;2.42;2.22;;;22.30;55.60;;;;;;5042712;28;20206;-66
2023/07/07 11:58:03;;;;;;;2.22;2.03;;;22.30;55.50;;;;;;5052848;28;20723;-67
2023/07/07 12:00:48;;;;;;;1.83;1.67;;;22.40;55.50;;;;;;5050936;28;20630;-66
2023/07/07 12:03:33;;;;;;;1.95;1.67;;;22.40;55.50;;;;;;5051438;28;20167;-66
2023/07/07 12:06:03;;;;;;;3.03;1.92;;;22.40;55.30;;;;;;5050857;28;20179;-67
2023/07/07 12:08:39;;;;;;;2.10;1.90;;;22.40;55.30;;;;;;5051482;28;20266;-66
2023/07/07 12:11:06;;;;;;;2.08;1.92;;;22.40;55.20;;;;;;5051971;28;20282;-67
2023/07/07 12:13:35;;;;;;;3.15;2.13;;;22.50;55.20;;;;;;5052354;28;20193;-66
2023/07/07 12:16:17;;;;;;;2.20;2.03;;;22.40;55.10;;;;;;5051731;28;20180;-67
2023/07/07 12:18:44;;;;;;;2.20;2.00;;;22.50;55.00;;;;;;5052402;28;20201;-66
2023/07/07 12:21:21;;;;;;;1.90;1.70;;;22.50;55.00;;;;;;5051273;28;20253;-67
2023/07/07 12:23:56;;;;;;;2.25;2.08;;;22.60;55.00;;;;;;5055108;28;20242;-66
2023/07/07 12:26:34;;;;;;;2.72;2.28;;;22.50;54.90;;;;;;5058104;28;20640;-66
2023/07/07 12:29:00;;;;;;;2.10;1.80;;;22.50;54.80;;;;;;5071196;28;20182;-67
2023/07/07 12:31:28;;;;;;;3.03;1.92;;;22.60;54.80;;;;;;5052289;28;20175;-67
2023/07/07 12:33:55;;;;;;;2.60;2.08;;;22.60;54.70;;;;;;5071640;28;20179;-67
2023/07/07 12:36:29;;;;;;;2.20;2.00;;;22.60;54.60;;;;;;5072300;28;20182;-67
2023/07/07 12:39:02;;;;;;;2.63;1.92;;;22.60;54.60;;;;;;5072366;28;20555;-67
2023/07/07 12:41:28;;;;;;;1.98;1.77;;;22.60;54.50;;;;;;5056721;28;20250;-67
2023/07/07 12:43:59;;;;;;;3.90;2.03;;;22.60;54.50;;;;;;5052306;28;20618;-67
2023/07/07 12:46:29;;;;;;;2.17;1.98;;;22.70;54.50;;;;;;5051976;28;20194;-66
2023/07/07 12:48:57;;;;;;;2.80;2.05;;;22.60;54.40;;;;;;5035358;28;20171;-66
2023/07/07 12:51:23;;;;;;;1.92;1.60;;;22.70;54.40;;;;;;5052904;28;20171;-66
2023/07/07 12:53:53;;;;;;;2.97;1.98;;;22.70;54.30;;;;;;5052040;28;20216;-66
2023/07/07 12:56:20;;;;;;;1.70;1.60;;;22.70;54.30;;;;;;5052112;28;20546;-67
2023/07/07 12:58:47;;;;;;;2.35;2.15;;;22.70;54.30;;;;;;5071161;28;20181;-67
2023/07/07 13:01:15;;;;;;;2.00;1.80;;;22.70;54.30;;;;;;5072505;28;20617;-67
2023/07/07 13:04:05;;;;;;;2.22;2.03;;;22.80;54.20;;;;;;5072139;28;20183;-67